Nearby METAR Reports

 

KSJC - San Jose, California, USA
Distance from station: NE 9mi, 14km
Updated: 06/22/2018 11:53pm
Clear
Clear
 Wind from WNW
Wind: WNW 6 mph , 9 km/h
Temperature: 73°F , 23°C
Dew Point: 54°F , 12°C
Humidity: 50%
Barometer: 29.81 inHg , 1009.5 hPa
Clouds: Clear
Visibility: 10 miles , 16 km
2018/06/23 03:53 KSJC 230353Z 29005KT 10SM CLR 23/12 A2981 RMK AO2 SLP092 T02280122
KNUQ - Moffett Nas/Mtn, California, USA
Distance from station: N 9mi, 14km
Updated: 06/22/2018 11:56pm
Clear
Clear
 Wind from NNW
Wind: NNW 5 mph , 7 km/h
Temperature: 66°F , 19°C
Dew Point: 59°F , 15°C
Humidity: 78%
Barometer: 29.82 inHg , 1009.8 hPa
Clouds: Clear
Visibility: 10 miles , 16 km
2018/06/23 03:56 KNUQ 230356Z AUTO 33004KT 10SM CLR 19/15 A2982 RMK AO2 SLP100 T01940150
 
KPAO - Palo Alto, California, USA
Distance from station: NNW 14mi, 23km
Updated: 06/22/2018 11:47pm
Clear
Clear
 Wind from WNW
Wind: WNW 8 mph , 13 km/h
Temperature: 66°F , 19°C
Dew Point: 57°F , 14°C
Humidity: 73%
Barometer: 29.81 inHg , 1009.5 hPa
Clouds: Clear
Visibility: 10 miles , 16 km
2018/06/23 03:47 KPAO 230347Z 30007KT 10SM SKC 19/14 A2981
KRHV - San Jose/Reid, California, USA
Distance from station: ENE 12mi, 19km
Updated: 06/22/2018 11:47pm
Clear
Clear
 Wind from WNW
Wind: WNW 7 mph , 11 km/h
Temperature: 77°F , 25°C
Dew Point: 52°F , 11°C
Humidity: 42%
Barometer: 29.79 inHg , 1008.8 hPa
Clouds: Clear
Visibility: 10 miles , 16 km
2018/06/23 03:47 KRHV 230347Z 30006KT 10SM SKC 25/11 A2979
 
KOAK - Oakland, California, USA
Distance from station: NNW 31mi, 50km
Updated: 06/22/2018 11:53pm
Clear
Clear
 Wind from W
Wind: W 10 mph , 17 km/h
Temperature: 63°F , 17°C
Dew Point: 55°F , 13°C
Humidity: 77%
Barometer: 29.81 inHg , 1009.5 hPa
Clouds: Clear
Visibility: 10 miles , 16 km
2018/06/23 03:53 KOAK 230353Z 28009KT 10SM CLR 17/13 A2981 RMK AO2 SLP095 T01720128
KSQL - San Carlos Airpo, California, USA
Distance from station: NW 21mi, 34km
Updated: 06/22/2018 11:47pm
Clear
Clear
 Wind from NW
Wind: NW 9 mph , 15 km/h
Temperature: 79°F , 26°C
Dew Point: 46°F , 8°C
Humidity: 32%
Barometer: 29.80 inHg , 1009.1 hPa
Clouds: Clear
Visibility: 10 miles , 16 km
2018/06/23 03:47 KSQL 230347Z 31008KT 10SM SKC 26/08 A2980
 
KSFO - San Francisco, California, USA
Distance from station: NW 30mi, 49km
Updated: 06/22/2018 11:56pm
Clear
Clear
 Wind from WNW
Wind: WNW 14 mph , 22 km/h
Temperature: 63°F , 17°C
Dew Point: 48°F , 9°C
Humidity: 59%
Barometer: 29.81 inHg , 1009.5 hPa
Clouds: Clear
Visibility: 10 miles , 16 km
2018/06/23 03:56 KSFO 230356Z 30012KT 10SM CLR 17/09 A2981 RMK AO2 SLP093 T01720094
KE16 - San Martin, California, USA
Distance from station: ESE 27mi, 43km
Updated: 06/22/2018 8:00pm
NOT Current
Clear
Clear
 Wind from NW
Wind: NW 14 mph , 22 km/h, Gust: 23 mph , 37 km/h
Temperature: 93°F , 34°C
Dew Point: 46°F , 8°C
Humidity: 20%
Barometer: 29.82 inHg , 1009.8 hPa
Clouds: Clear
Visibility: 10 miles , 16 km
2018/06/23 00:00 KE16 230000Z AUTO 31012G20KT 10SM CLR 34/08 A2982 RMK AO2
 
KWVI - Watsonville, California, USA
Distance from station: SSE 27mi, 44km
Updated: 06/22/2018 11:53pm
Clear
Clear
 Wind from ESE
Wind: ESE 5 mph , 7 km/h
Temperature: 57°F , 14°C
Dew Point: 52°F , 11°C
Humidity: 82%
Barometer: 29.84 inHg , 1010.5 hPa
Clouds: Clear
Visibility: 8 miles , 13 km
2018/06/23 03:53 KWVI 230353Z AUTO 12004KT 8SM CLR 14/11 A2984 RMK AO2 SLP105 T01390111
KHAF - Half Moon Bay, California, USA
Distance from station: WNW 31mi, 50km
Updated: 06/23/2018 12:00am
Mist, Clear
Mist, Clear
 Wind from NW
Wind: NW 3 mph , 6 km/h
Temperature: 54°F , 12°C
Dew Point: 50°F , 10°C
Humidity: 88%
Barometer: 29.86 inHg , 1011.2 hPa
Summary: Mist
Clouds: Clear
Visibility: 3 miles , 5 km
2018/06/23 04:00 KHAF 230400Z AUTO 31003KT 3SM BR CLR 12/10 A2986 RMK AO2
 
KHWD - Hayward, California, USA
Distance from station: N 28mi, 44km
Updated: 06/22/2018 11:54pm
Clear
Clear
 Wind from NW
Wind: NW 7 mph , 11 km/h
Temperature: 64°F , 18°C
Dew Point: 54°F , 12°C
Humidity: 68%
Barometer: 29.81 inHg , 1009.5 hPa
Clouds: Clear
Visibility: 10 miles , 16 km
2018/06/23 03:54 KHWD 230354Z 31006KT 10SM CLR 18/12 A2981 RMK AO2 SLP104 T01830117
KLVK - Livermore, California, USA
Distance from station: NNE 31mi, 51km
Updated: 06/22/2018 11:53pm
Clear
Clear
 Wind from WSW
Wind: WSW 3 mph , 6 km/h
Temperature: 82°F , 28°C
Dew Point: 43°F , 6°C
Humidity: 25%
Barometer: 29.79 inHg , 1008.8 hPa
Clouds: Clear
Visibility: 10 miles , 16 km
2018/06/23 03:53 KLVK 230353Z 25003KT 10SM CLR 28/06 A2979 RMK AO2 SLP085 T02780061